KDMN

Deming Municipal Airport

Deming, New Mexico, USA
KDMN 210542Z 2106/2206 12007KT P6SM FEW120 FM210900 28006KT P6SM SKC FM211500 12006KT P6SM FEW150
Issued Valid From Valid To
Jul-21 @ 05:42 UTC
(5 hours ago)
Jul-21 @ 06:00 UTC
(5 hours ago)
Jul-22 @ 06:00 UTC
(in 19 hours)
Expired Click to View Jul-21 @ 06:00 to Jul-21 @ 09:00
KDMN 210542Z 2106/2206 12007KT P6SM FEW120
Wind Visibility Clouds
120° at 7 knots Greater than 6 miles
  • Few at 12,000' AGL
From Jul-21 @ 09:00 to Jul-21 @ 15:00
FM210900 28006KT P6SM SKC
Wind Visibility Clouds
280° at 6 knots Greater than 6 miles
  • Clear skies
From Jul-21 @ 15:00 to Jul-22 @ 06:00
FM211500 12006KT P6SM FEW150
Wind Visibility Clouds
120° at 6 knots Greater than 6 miles
  • Few at 15,000' AGL
KDMN 210542Z 2106/2206 12007KT P6SM FEW120 FM210900 28006KT P6SM SKC FM211500 12006KT P6SM FEW150
Issued Jul-21 @ 05:42 UTC
(5 hours ago)
Valid From Jul-21 @ 06:00 UTC
(5 hours ago)
Valid To Jul-22 @ 06:00 UTC
(in 19 hours)
Jul-21 @ 06:00 - Jul-21 @ 09:00
Wind Visibility
120° at 7 knots Greater than 6 miles
Clouds
  • Few at 12,000' AGL
From Jul-21 @ 09:00 - Jul-21 @ 15:00
Wind Visibility
280° at 6 knots Greater than 6 miles
Clouds
  • Clear skies
From Jul-21 @ 15:00 - Jul-22 @ 06:00
Wind Visibility
120° at 6 knots Greater than 6 miles
Clouds
  • Few at 15,000' AGL